Latest Weather Observations for Padthaway

IDS60801

Issued at 9:51 pm CST Thursday 24 September 2020 (issued every 10 minutes, with the page automatically refreshed every 10 minutes)

About weather observations | Map of weather stations | Latest weather observations for SA | Other Formats
Station Details ID: 026100 Name: PADTHAWAY SOUTH Lat: -36.65 Lon: 140.52 Height: 37.0 m
Data from the previous 72 hours. | See also: Recent months at Padthaway
Date/Time
CST
Temp
°C
App
Temp
°C
Dew
Point
°C
Rel
Hum
%
Delta-T
°C
Wind Press
QNH
hPa
Press
MSL
hPa
Rain since
9am
mm
Dir  Spd
km/h
Gust
km/h
Spd
kts
Gust
kts
24/09:30pm 7.5 5.0 6.4 93 0.5 NW 9 11 5 6 - - 5.8
24/09:00pm 7.5 5.3 6.3 92 0.5 WNW 7 11 4 6 - - 5.8
24/08:30pm 7.5 4.9 6.0 90 0.7 WNW 9 15 5 8 - - 5.8
24/08:00pm 8.0 4.4 6.6 91 0.6 W 15 19 8 10 - - 5.8
24/07:30pm 8.5 5.4 7.4 93 0.5 WNW 13 22 7 12 - - 5.8
24/07:00pm 8.7 5.7 7.5 92 0.6 WNW 13 19 7 10 - - 5.6
24/06:30pm 9.1 5.3 7.5 90 0.8 NW 17 24 9 13 - - 5.4
24/06:00pm 9.2 4.4 7.3 88 0.9 NNW 22 35 12 19 - - 5.2
24/05:30pm 9.8 5.6 7.6 86 1.1 NNW 19 26 10 14 - - 4.0
24/05:00pm 9.9 4.8 7.7 86 1.1 NNW 24 37 13 20 - - 4.0
24/04:30pm 10.0 4.9 7.8 86 1.1 NNW 24 37 13 20 - - 4.0
24/04:00pm 9.7 5.8 7.3 85 1.1 NNW 17 24 9 13 - - 4.0
24/03:30pm 8.9 4.0 6.9 87 0.9 NW 22 37 12 20 - - 4.0
24/03:00pm 9.3 2.5 7.1 86 1.0 WNW 32 43 17 23 - - 3.0
24/02:33pm 11.6 5.0 5.9 68 2.7 WNW 30 65 16 35 - - 3.0
24/02:30pm 12.7 6.6 6.7 67 2.9 NW 28 39 15 21 - - 3.0
24/02:00pm 13.3 7.2 6.4 63 3.3 NNW 28 43 15 23 - - 3.0
24/01:30pm 12.8 7.0 7.9 72 2.4 N 28 39 15 21 - - 3.0
24/01:00pm 11.5 5.9 7.0 74 2.2 NNW 26 37 14 20 - - 3.0
24/12:30pm 12.3 8.2 8.6 78 1.8 NNW 20 28 11 15 - - 3.0
24/12:00pm 10.9 7.7 8.3 84 1.3 N 15 22 8 12 - - 3.0
24/11:30am 8.2 3.5 5.3 82 1.3 NW 19 26 10 14 - - 2.8
24/11:00am 11.5 7.3 7.4 76 2.0 NNW 19 28 10 15 - - 0.2
24/10:30am 11.2 6.8 7.3 77 1.9 NNW 20 28 11 15 - - 0.2
24/10:00am 10.3 5.9 7.5 83 1.3 N 20 32 11 17 - - 0.2
24/09:30am 9.5 5.2 7.9 90 0.8 N 20 28 11 15 - - 0.2
24/09:00am 9.2 4.8 7.5 89 0.8 NNW 20 28 11 15 - - 4.4
24/08:30am 9.2 5.7 7.3 88 0.9 NNW 15 22 8 12 - - 4.2
24/08:00am 8.7 6.3 7.2 90 0.7 N 9 11 5 6 - - 3.8
24/07:30am 7.7 5.5 6.0 89 0.8 NW 7 11 4 6 - - 3.8
24/07:00am 7.3 4.7 6.1 92 0.5 N 9 11 5 6 - - 3.8
24/06:30am 6.8 4.5 5.9 94 0.4 N 7 9 4 5 - - 3.8
24/06:00am 6.2 3.1 5.5 95 0.3 N 11 13 6 7 - - 3.8
24/05:30am 5.5 2.6 4.8 95 0.3 N 9 11 5 6 - - 3.8
24/05:00am 5.9 3.1 5.0 94 0.4 N 9 11 5 6 - - 3.8
24/04:30am 6.6 3.9 5.7 94 0.4 N 9 9 5 5 - - 3.8
24/04:00am 7.0 4.0 6.1 94 0.4 NW 11 17 6 9 - - 3.8
24/03:30am 6.8 3.8 6.2 96 0.3 NW 11 17 6 9 - - 3.8
24/03:00am 6.2 3.5 5.6 96 0.3 NNW 9 13 5 7 - - 3.8
24/02:30am 5.5 3.0 4.8 95 0.3 N 7 9 4 5 - - 3.8
24/02:00am 5.0 1.9 3.8 92 0.5 NNW 9 11 5 6 - - 3.8
24/01:30am 5.9 3.4 4.7 92 0.5 NW 7 9 4 5 - - 3.8
24/01:00am 6.1 3.2 4.7 91 0.6 NW 9 13 5 7 - - 3.8
24/12:30am 5.9 3.0 4.7 92 0.5 WNW 9 11 5 6 - - 3.8
24/12:00am 5.6 3.0 4.2 91 0.6 N 7 9 4 5 - - 3.8
 
Date/Time
CST
Temp
°C
App
Temp
°C
Dew
Point
°C
Rel
Hum
%
Delta-T
°C
Wind Press
QNH
hPa
Press
MSL
hPa
Rain since
9am
mm
Dir  Spd
km/h
Gust
km/h
Spd
kts
Gust
kts
23/11:30pm 6.1 3.1 4.3 88 0.8 NW 9 11 5 6 - - 3.8
23/11:00pm 6.8 3.6 5.1 89 0.7 WNW 11 15 6 8 - - 3.8
23/10:30pm 6.7 3.8 4.9 88 0.8 WNW 9 11 5 6 - - 3.8
23/10:00pm 7.7 5.0 5.5 86 1.0 WSW 9 13 5 7 - - 3.8
23/09:30pm 7.2 4.4 5.2 87 0.9 WNW 9 13 5 7 - - 3.8
23/09:00pm 7.6 4.9 5.6 87 0.9 WNW 9 13 5 7 - - 3.8
23/08:30pm 7.2 4.4 5.0 86 1.0 W 9 11 5 6 - - 3.8
23/08:00pm 8.0 5.3 5.5 84 1.1 WNW 9 13 5 7 - - 3.8
23/07:30pm 8.0 5.2 5.3 83 1.2 W 9 11 5 6 - - 3.8
23/07:00pm 8.8 6.2 6.3 84 1.2 W 9 11 5 6 - - 3.8
23/06:30pm 9.2 6.6 5.9 80 1.5 W 9 13 5 7 - - 3.8
23/06:00pm 9.9 6.5 6.1 77 1.8 WSW 13 24 7 13 - - 3.6
23/05:30pm 10.0 7.0 7.8 86 1.1 WSW 13 24 7 13 - - 3.6
23/05:00pm 10.0 6.2 7.6 85 1.1 WSW 17 26 9 14 - - 3.6
23/04:30pm 10.6 5.0 7.3 80 1.6 WSW 26 43 14 23 - - 3.4
23/04:00pm 11.6 8.0 8.3 80 1.6 SW 17 24 9 13 - - 3.4
23/03:30pm 10.3 5.7 8.2 87 1.0 SW 22 41 12 22 - - 3.4
23/03:00pm 11.7 7.9 8.9 83 1.4 WSW 19 28 10 15 - - 3.4
23/02:30pm 11.4 7.5 9.5 88 1.0 SW 20 30 11 16 - - 3.4
23/02:00pm 11.3 8.0 9.7 90 0.8 SW 17 24 9 13 - - 3.4
23/01:30pm 11.9 8.2 10.0 88 1.0 W 20 32 11 17 - - 1.8
23/01:00pm 11.5 6.4 9.1 85 1.2 W 26 39 14 21 - - 1.8
23/12:30pm 13.4 9.4 9.1 75 2.2 WSW 20 33 11 18 - - 1.8
23/12:00pm 11.8 6.3 7.5 75 2.1 WSW 26 44 14 24 - - 1.8
23/11:30am 13.3 9.7 9.9 80 1.8 WSW 19 32 10 17 - - 1.8
23/11:00am 13.0 9.1 8.5 74 2.2 WSW 19 33 10 18 - - 1.0
23/10:30am 12.4 8.0 7.3 71 2.5 WSW 20 32 11 17 - - 1.0
23/10:00am 13.0 8.9 8.5 74 2.2 WSW 20 32 11 17 - - 1.0
23/09:30am 10.3 5.5 7.4 82 1.4 WSW 22 33 12 18 - - 0.8
23/09:00am 12.6 8.6 8.1 74 2.2 W 19 28 10 15 - - 5.4
23/08:30am 11.7 8.4 8.2 79 1.7 W 15 20 8 11 - - 5.4
23/08:00am 11.1 8.0 8.8 86 1.1 W 15 22 8 12 - - 5.4
23/07:30am 9.5 7.5 8.6 94 0.4 NW 9 13 5 7 - - 5.4
23/07:00am 8.2 5.9 7.6 96 0.3 WNW 9 13 5 7 - - 5.4
23/06:30am 7.4 5.0 7.0 97 0.2 NNW 9 11 5 6 - - 5.4
23/06:00am 7.2 4.7 6.6 96 0.3 WNW 9 11 5 6 - - 5.4
23/05:30am 7.3 4.8 6.7 96 0.3 NW 9 11 5 6 - - 5.2
23/05:00am 7.8 5.5 7.4 97 0.2 NW 9 11 5 6 - - 5.2
23/04:30am 7.7 5.3 7.1 96 0.3 NW 9 13 5 7 - - 5.2
23/04:00am 8.0 5.7 7.4 96 0.3 NW 9 13 5 7 - - 5.2
23/03:30am 8.1 5.4 7.5 96 0.3 NW 11 13 6 7 - - 5.2
23/03:00am 8.8 6.3 8.4 97 0.2 NW 11 17 6 9 - - 5.2
23/02:30am 9.0 6.2 8.6 97 0.2 NNW 13 17 7 9 - - 5.2
23/02:00am 8.9 6.1 8.5 97 0.2 NNW 13 17 7 9 - - 5.0
23/01:30am 9.0 6.2 8.4 96 0.3 NNW 13 17 7 9 - - 5.0
23/01:00am 9.3 6.5 8.5 95 0.4 NW 13 15 7 8 - - 4.8
23/12:30am 9.5 6.7 8.6 94 0.4 NW 13 17 7 9 - - 3.8
23/12:00am 9.6 6.4 8.5 93 0.5 NW 15 20 8 11 - - 3.4
 
Date/Time
CST
Temp
°C
App
Temp
°C
Dew
Point
°C
Rel
Hum
%
Delta-T
°C
Wind Press
QNH
hPa
Press
MSL
hPa
Rain since
9am
mm
Dir  Spd
km/h
Gust
km/h
Spd
kts
Gust
kts
22/11:30pm 9.8 7.0 8.7 93 0.5 NW 13 19 7 10 - - 3.2
22/11:00pm 10.0 6.9 8.8 92 0.6 NW 15 22 8 12 - - 3.2
22/10:30pm 10.1 7.0 9.0 93 0.5 NW 15 19 8 10 - - 1.8
22/10:00pm 9.9 7.2 8.8 93 0.5 NNW 13 17 7 9 - - 1.8
22/09:30pm 9.9 7.5 8.7 92 0.6 NNW 11 15 6 8 - - 1.8
22/09:00pm 9.5 6.9 7.9 90 0.8 NNW 11 17 6 9 - - 1.8
22/08:30pm 10.0 7.5 8.4 90 0.8 NW 11 15 6 8 - - 1.8
22/08:00pm 10.7 8.0 8.8 88 0.9 NW 13 17 7 9 - - 1.8
22/07:30pm 11.3 8.7 9.4 88 1.0 WNW 13 22 7 12 - - 1.8
22/07:00pm 10.7 8.3 8.6 87 1.0 WNW 11 15 6 8 - - 1.8
22/06:30pm 10.9 8.2 8.8 87 1.0 WNW 13 20 7 11 - - 1.8
22/06:00pm 11.1 7.6 8.7 85 1.2 WNW 17 24 9 13 - - 1.8
22/05:30pm 11.6 7.7 9.3 86 1.2 WNW 20 26 11 14 - - 1.8
22/05:00pm 12.5 7.4 7.6 72 2.4 W 24 37 13 20 - - 1.6
22/04:30pm 13.6 7.5 6.7 63 3.3 W 28 39 15 21 - - 1.6
22/04:00pm 14.2 8.9 7.0 62 3.5 W 24 37 13 20 - - 1.6
22/03:30pm 14.1 7.9 6.0 58 3.9 W 28 43 15 23 - - 1.6
22/03:00pm 14.6 8.4 6.2 57 4.0 W 28 46 15 25 - - 1.6
22/02:59pm 14.9 8.7 6.2 56 4.2 W 28 46 15 25 - - 1.6
22/02:30pm 15.4 9.3 6.4 55 4.4 W 28 41 15 22 - - 1.6
22/02:00pm 15.5 8.7 6.8 56 4.3 W 32 46 17 25 - - 1.6
22/01:35pm 15.3 8.8 6.6 56 4.2 W 30 48 16 26 - - 1.6
22/01:30pm 15.3 8.9 7.1 58 4.0 W 30 46 16 25 - - 1.6
22/01:17pm 15.5 9.8 8.3 62 3.6 W 28 46 15 25 - - 1.6
22/01:00pm 14.7 8.0 8.0 64 3.3 W 33 46 18 25 - - 1.6
22/12:30pm 14.9 8.3 7.7 62 3.6 W 32 52 17 28 - - 1.6
22/12:12pm 14.9 6.8 7.0 59 3.9 W 39 57 21 31 - - 1.6
22/12:00pm 15.2 8.0 9.3 68 3.0 W 37 54 20 29 - - 1.6
22/11:30am 14.3 5.8 8.5 68 2.9 W 43 61 23 33 - - 1.6
22/11:05am 13.3 4.7 8.8 74 2.3 WNW 44 63 24 34 - - 1.6
22/11:00am 13.7 4.6 8.5 71 2.6 WNW 46 63 25 34 - - 1.6
22/10:34am 14.3 7.8 10.3 77 2.1 WNW 35 54 19 29 - - 1.6
22/10:30am 13.9 7.8 10.3 79 1.9 WNW 33 50 18 27 - - 1.6
22/10:00am 12.1 5.8 9.8 86 1.2 WNW 33 52 18 28 - - 1.6
22/09:38am 12.5 5.8 9.5 82 1.5 WNW 35 54 19 29 - - 0.0
22/09:30am 13.3 5.8 9.4 77 2.0 WNW 39 56 21 30 - - 0.0
22/09:00am 13.3 6.4 8.8 74 2.3 NW 35 56 19 30 - - 0.6
22/08:30am 12.5 5.1 8.4 76 2.0 NW 37 59 20 32 - - 0.4
22/08:18am 13.0 7.3 8.5 74 2.2 NW 28 54 15 29 - - 0.4
22/08:00am 12.2 6.7 9.0 81 1.6 NW 28 41 15 22 - - 0.4
22/07:30am 11.7 6.1 8.9 83 1.4 NNW 28 37 15 20 - - 0.4
22/07:00am 10.9 5.3 8.8 87 1.0 NNW 28 35 15 19 - - 0.4
22/06:30am 10.3 5.7 8.2 87 1.0 NNW 22 32 12 17 - - 0.4
22/06:00am 10.1 5.9 8.2 88 0.9 NNW 20 30 11 16 - - 0.4
22/05:30am 9.9 5.3 8.2 89 0.8 NNW 22 32 12 17 - - 0.4
22/05:00am 10.0 5.8 8.1 88 0.9 NNW 20 30 11 16 - - 0.4
22/04:30am 10.5 6.0 8.6 88 0.9 NNW 22 30 12 16 - - 0.4
22/04:00am 10.4 6.3 8.8 90 0.8 NNW 20 30 11 16 - - 0.4
22/03:30am 10.4 6.5 8.7 89 0.8 NNW 19 30 10 16 - - 0.4
22/03:00am 10.4 6.3 8.7 89 0.8 NNW 20 28 11 15 - - 0.4
22/02:30am 10.0 5.8 8.3 89 0.8 NNW 20 28 11 15 - - 0.2
22/02:00am 10.2 6.6 8.5 89 0.8 NNW 17 20 9 11 - - 0.2
22/01:30am 10.4 6.5 8.8 90 0.8 NNW 19 26 10 14 - - 0.2
22/01:00am 10.7 6.3 9.0 89 0.8 NNW 22 32 12 17 - - 0.2
22/12:30am 10.7 6.3 9.0 89 0.8 NNW 22 32 12 17 - - 0.2
22/12:00am 11.1 6.3 9.0 87 1.0 NNW 24 33 13 18 - - 0.0
 
Date/Time
CST
Temp
°C
App
Temp
°C
Dew
Point
°C
Rel
Hum
%
Delta-T
°C
Wind Press
QNH
hPa
Press
MSL
hPa
Rain since
9am
mm
Dir  Spd
km/h
Gust
km/h
Spd
kts
Gust
kts
21/11:30pm 11.1 7.0 8.8 86 1.1 NNW 20 28 11 15 - - 0.0
21/11:00pm 11.2 7.7 8.9 86 1.1 NNW 17 24 9 13 - - 0.0
21/10:30pm 11.4 7.9 8.8 84 1.3 NNW 17 20 9 11 - - 0.0
21/10:00pm 11.5 7.9 8.5 82 1.5 NNW 17 20 9 11 - - 0.0

Other formats

Comma delimited format used in spreadsheet applications
http://www.bom.gov.au/fwo/IDS60801/IDS60801.95823.axf

JavaScript Object Notation format (JSON) in row-major order
http://www.bom.gov.au/fwo/IDS60801/IDS60801.95823.json

Data quality

Most of these data are generated automatically and are frequently updated. Quality checks on data are not normally performed. It is possible for incorrect values to appear. Refer to information at About Latest Weather Observations and please check the disclaimer before using these data.